createdAt,value
2019-04-25T00:00:46.847Z,92.90
2019-04-25T00:03:16.933Z,92.90
2019-04-25T00:05:45.392Z,92.80
2019-04-25T00:08:13.994Z,93.20
2019-04-25T00:10:43.070Z,93.40
2019-04-25T00:13:12.727Z,93.60
2019-04-25T00:15:41.960Z,93.70
2019-04-25T00:18:11.940Z,93.80
2019-04-25T00:20:42.654Z,94.00
2019-04-25T00:23:13.760Z,94.10
2019-04-25T00:25:46.768Z,93.90
2019-04-25T00:28:14.065Z,93.90
2019-04-25T00:30:43.475Z,93.90
2019-04-25T00:33:12.623Z,94.20
2019-04-25T00:35:42.521Z,94.20
2019-04-25T00:38:12.208Z,94.30
2019-04-25T00:40:42.701Z,93.90
2019-04-25T00:43:11.433Z,94.10
2019-04-25T00:45:41.509Z,94.30
2019-04-25T00:48:10.193Z,94.60
2019-04-25T00:50:38.627Z,94.60
2019-04-25T00:53:07.030Z,94.60
2019-04-25T00:55:35.461Z,94.80
2019-04-25T00:58:08.726Z,94.70
2019-04-25T01:00:47.922Z,94.60
2019-04-25T01:03:27.278Z,94.50
2019-04-25T01:05:55.697Z,94.70
2019-04-25T01:08:24.273Z,94.30
2019-04-25T01:10:53.214Z,94.10
2019-04-25T01:13:22.313Z,94.40
2019-04-25T01:15:52.572Z,94.20
2019-04-25T01:18:21.122Z,94.20
2019-04-25T01:20:50.125Z,94.10
2019-04-25T01:23:18.613Z,94.10
2019-04-25T01:25:47.849Z,94.10
2019-04-25T01:28:16.284Z,94.40
2019-04-25T01:30:46.273Z,94.60
2019-04-25T01:33:14.987Z,94.60
2019-04-25T01:35:45.144Z,94.70
2019-04-25T01:38:21.335Z,94.70
2019-04-25T01:40:55.471Z,94.50
2019-04-25T01:43:41.281Z,94.20
2019-04-25T01:46:10.980Z,94.10
2019-04-25T01:48:39.409Z,94.20
2019-04-25T01:51:08.041Z,94.30
2019-04-25T01:53:36.544Z,94.30
2019-04-25T01:56:07.582Z,94.20
2019-04-25T01:58:35.246Z,94.20
2019-04-25T02:01:04.603Z,93.60
2019-04-25T02:03:35.460Z,93.20
2019-04-25T02:06:04.751Z,92.80
2019-04-25T02:08:34.051Z,92.60
2019-04-25T02:11:04.719Z,92.70
2019-04-25T02:13:35.735Z,93.10
2019-04-25T02:16:05.606Z,93.60
2019-04-25T02:18:34.195Z,93.90
2019-04-25T02:21:04.409Z,94.30
2019-04-25T02:23:34.092Z,94.50
2019-04-25T02:26:13.922Z,94.70
2019-04-25T02:28:33.831Z,94.60
2019-04-25T02:31:08.195Z,94.10
2019-04-25T02:33:34.075Z,93.80
2019-04-25T02:36:08.246Z,93.80
2019-04-25T02:38:34.243Z,94.20
2019-04-25T02:41:06.920Z,94.60
2019-04-25T02:43:35.002Z,94.80
2019-04-25T02:46:24.734Z,95.00
2019-04-25T02:49:26.552Z,95.40
2019-04-25T02:51:42.198Z,95.50
2019-04-25T02:54:10.626Z,95.50
2019-04-25T02:56:39.249Z,95.50
2019-04-25T02:59:09.181Z,95.30
2019-04-25T03:01:37.879Z,95.00
2019-04-25T03:04:10.730Z,94.80
2019-04-25T03:06:36.586Z,95.10
2019-04-25T03:09:09.807Z,95.00
2019-04-25T03:11:38.403Z,95.00
2019-04-25T03:14:08.710Z,95.00
2019-04-25T03:16:37.113Z,94.90
2019-04-25T03:19:14.105Z,94.70
2019-04-25T03:21:45.177Z,94.20
2019-04-25T03:24:16.651Z,94.00
2019-04-25T03:26:44.364Z,93.90
2019-04-25T03:29:13.661Z,93.30
2019-04-25T03:31:44.705Z,92.90
2019-04-25T03:34:19.136Z,92.80
2019-04-25T03:36:43.880Z,92.20
2019-04-25T03:39:14.478Z,92.20
2019-04-25T03:41:43.857Z,91.60
2019-04-25T03:44:13.953Z,91.50
2019-04-25T03:46:43.831Z,91.80
2019-04-25T03:49:13.945Z,91.60
2019-04-25T03:51:43.864Z,91.50
2019-04-25T03:54:14.203Z,91.70
2019-04-25T03:56:51.999Z,92.00
2019-04-25T03:59:14.606Z,92.40
2019-04-25T04:01:43.941Z,93.10
2019-04-25T04:04:14.379Z,93.50
2019-04-25T04:06:44.129Z,93.30
2019-04-25T04:09:14.268Z,93.50
2019-04-25T04:11:43.522Z,93.60
2019-04-25T04:14:12.966Z,93.80
2019-04-25T04:16:44.357Z,93.70
2019-04-25T04:19:14.780Z,93.80
2019-04-25T04:21:57.601Z,93.30
2019-04-25T04:24:27.661Z,92.40
2019-04-25T04:27:14.112Z,91.30
2019-04-25T04:29:43.213Z,90.80
2019-04-25T04:32:12.577Z,90.30
2019-04-25T04:34:43.522Z,90.30
2019-04-25T04:37:13.936Z,90.10
2019-04-25T04:39:43.728Z,90.10
2019-04-25T04:42:13.993Z,89.60
2019-04-25T04:44:43.744Z,90.40
2019-04-25T04:47:14.103Z,90.50
2019-04-25T04:49:43.926Z,90.40
2019-04-25T04:52:14.327Z,90.00
2019-04-25T04:54:43.908Z,90.10
2019-04-25T04:57:25.742Z,89.40
2019-04-25T04:59:43.839Z,88.50
2019-04-25T05:02:30.721Z,88.10
2019-04-25T05:05:03.716Z,86.80
2019-04-25T05:07:43.941Z,87.10
2019-04-25T05:10:14.697Z,87.70
2019-04-25T05:12:43.799Z,88.40
2019-04-25T05:15:16.143Z,88.60
2019-04-25T05:17:44.041Z,88.50
2019-04-25T05:20:13.400Z,88.20
2019-04-25T05:22:44.424Z,87.90
2019-04-25T05:25:15.267Z,87.70
2019-04-25T05:27:57.633Z,86.00
2019-04-25T05:30:16.974Z,84.60
2019-04-25T05:32:46.426Z,84.10
2019-04-25T05:35:16.267Z,83.60
2019-04-25T05:37:44.941Z,83.30
2019-04-25T05:40:15.729Z,82.90
2019-04-25T05:43:03.291Z,83.40
2019-04-25T05:45:34.074Z,82.80
2019-04-25T05:48:04.248Z,79.50
2019-04-25T05:50:33.904Z,78.60
2019-04-25T05:53:04.138Z,78.50
2019-04-25T05:55:34.190Z,76.10
2019-04-25T05:58:03.833Z,74.90
2019-04-25T06:00:34.046Z,76.20
2019-04-25T06:03:03.582Z,73.90
2019-04-25T06:05:33.478Z,72.90
2019-04-25T06:08:04.113Z,72.10
2019-04-25T06:10:40.037Z,71.90
2019-04-25T06:13:13.835Z,72.40
2019-04-25T06:15:44.269Z,70.90
2019-04-25T06:18:14.394Z,68.30
2019-04-25T06:20:44.194Z,67.30
2019-04-25T06:23:14.482Z,65.30
2019-04-25T06:25:43.927Z,65.50
2019-04-25T06:28:14.141Z,66.70
2019-04-25T06:30:44.274Z,65.80
2019-04-25T06:33:13.335Z,63.70
2019-04-25T06:35:41.966Z,61.30
2019-04-25T06:38:10.385Z,61.50
2019-04-25T06:40:38.892Z,62.10
2019-04-25T06:43:07.463Z,62.70
2019-04-25T06:45:50.312Z,63.40
2019-04-25T06:48:21.239Z,63.80
2019-04-25T06:50:49.965Z,63.40
2019-04-25T06:53:18.416Z,63.20
2019-04-25T06:55:46.844Z,64.40
2019-04-25T06:58:15.277Z,63.70
2019-04-25T07:00:57.462Z,62.70
2019-04-25T07:03:15.493Z,63.90
2019-04-25T07:05:44.107Z,62.80
2019-04-25T07:08:13.291Z,62.00
2019-04-25T07:10:41.942Z,63.70
2019-04-25T07:13:10.356Z,64.20
2019-04-25T07:15:38.860Z,62.40
2019-04-25T07:18:07.280Z,62.30
2019-04-25T07:20:35.793Z,62.30
2019-04-25T07:23:04.846Z,62.00
2019-04-25T07:25:35.770Z,62.10
2019-04-25T07:28:07.018Z,61.40
2019-04-25T07:30:48.606Z,62.70
2019-04-25T07:33:14.888Z,62.20
2019-04-25T07:35:43.508Z,60.90
2019-04-25T07:38:12.092Z,60.40
2019-04-25T07:40:43.381Z,60.10
2019-04-25T07:43:13.428Z,59.70
2019-04-25T07:45:43.515Z,60.60
2019-04-25T07:48:13.847Z,59.90
2019-04-25T07:50:43.803Z,59.30
2019-04-25T07:53:14.311Z,59.90
2019-04-25T07:55:43.287Z,58.50
2019-04-25T07:58:12.015Z,58.40
2019-04-25T08:00:40.551Z,58.70
2019-04-25T08:03:09.007Z,59.00
2019-04-25T08:05:37.907Z,58.10
2019-04-25T08:08:06.520Z,57.40
2019-04-25T08:10:56.054Z,59.20
2019-04-25T08:13:26.150Z,58.20
2019-04-25T08:15:56.229Z,56.70
2019-04-25T08:18:25.423Z,56.70
2019-04-25T08:20:53.975Z,55.90
2019-04-25T08:23:23.807Z,54.00
2019-04-25T08:25:54.331Z,55.40
2019-04-25T08:28:23.676Z,54.70
2019-04-25T08:30:54.856Z,54.50
2019-04-25T08:33:23.748Z,53.90
2019-04-25T08:36:04.221Z,54.10
2019-04-25T08:38:23.870Z,55.30
2019-04-25T08:40:54.166Z,54.10
2019-04-25T08:43:24.332Z,53.30
2019-04-25T08:45:54.418Z,52.20
2019-04-25T08:48:24.642Z,52.00
2019-04-25T08:50:57.753Z,51.40
2019-04-25T08:53:27.897Z,49.80
2019-04-25T08:56:04.152Z,50.10
2019-04-25T08:58:35.330Z,49.30
2019-04-25T09:01:06.020Z,48.80
2019-04-25T09:03:50.910Z,50.00
2019-04-25T09:06:19.464Z,48.60
2019-04-25T09:08:47.935Z,47.40
2019-04-25T09:11:16.586Z,47.60
2019-04-25T09:13:45.125Z,48.20
2019-04-25T09:16:15.453Z,47.30
2019-04-25T09:18:44.372Z,45.50
2019-04-25T09:21:16.836Z,46.20
2019-04-25T09:23:45.295Z,46.10
2019-04-25T09:26:14.298Z,45.80
2019-04-25T09:28:45.334Z,45.80
2019-04-25T09:31:13.966Z,45.80
2019-04-25T09:33:45.353Z,44.90
2019-04-25T09:36:14.179Z,44.80
2019-04-25T09:38:46.669Z,44.00
2019-04-25T09:41:15.308Z,45.30
2019-04-25T09:43:45.693Z,43.70
2019-04-25T09:46:15.825Z,43.40
2019-04-25T09:48:46.723Z,45.00
2019-04-25T09:51:17.009Z,44.30
2019-04-25T09:53:50.932Z,43.00
2019-04-25T09:56:20.706Z,42.30
2019-04-25T09:58:59.540Z,42.50
2019-04-25T10:01:28.431Z,41.60
2019-04-25T10:03:56.927Z,41.70
2019-04-25T10:06:25.365Z,41.60
2019-04-25T10:08:54.358Z,41.70
2019-04-25T10:11:23.727Z,39.80
2019-04-25T10:14:04.569Z,39.60
2019-04-25T10:16:33.495Z,39.20
2019-04-25T10:19:03.525Z,38.80
2019-04-25T10:21:31.985Z,39.80
2019-04-25T10:24:00.386Z,38.90
2019-04-25T10:26:29.809Z,38.30
2019-04-25T10:28:58.208Z,37.70
2019-04-25T10:31:26.792Z,36.80
2019-04-25T10:33:55.209Z,36.40
2019-04-25T10:36:24.687Z,36.70
2019-04-25T10:39:04.264Z,38.20
2019-04-25T10:41:24.453Z,35.50
2019-04-25T10:43:55.893Z,38.30
2019-04-25T10:46:24.446Z,37.00
2019-04-25T10:48:55.919Z,35.40
2019-04-25T10:51:24.011Z,34.40
2019-04-25T10:53:53.859Z,34.30
2019-04-25T10:56:24.236Z,34.50
2019-04-25T10:58:54.811Z,34.40
2019-04-25T11:01:24.433Z,33.80
2019-04-25T11:03:57.203Z,33.40
2019-04-25T11:06:27.498Z,34.10
2019-04-25T11:08:56.645Z,32.60
2019-04-25T11:11:25.749Z,33.50
2019-04-25T11:13:56.958Z,33.10
2019-04-25T11:16:25.633Z,34.20
2019-04-25T11:18:54.830Z,32.30
2019-04-25T11:21:24.257Z,32.30
2019-04-25T11:23:55.314Z,32.80
2019-04-25T11:26:23.500Z,32.50
2019-04-25T11:28:52.017Z,32.10
2019-04-25T11:31:23.489Z,30.90
2019-04-25T11:33:52.363Z,30.90
2019-04-25T11:36:21.497Z,31.90
2019-04-25T11:38:54.351Z,31.30
2019-04-25T11:41:24.274Z,32.50
2019-04-25T11:43:55.250Z,30.70
2019-04-25T11:46:24.209Z,31.60
2019-04-25T11:48:54.685Z,31.30
2019-04-25T11:51:24.070Z,31.40
2019-04-25T11:53:54.247Z,29.80
2019-04-25T11:56:24.127Z,29.50
2019-04-25T11:58:54.217Z,30.00
2019-04-25T12:01:24.318Z,30.20
2019-04-25T12:03:54.857Z,29.80
2019-04-25T12:06:24.318Z,29.80
2019-04-25T12:08:54.228Z,30.00
2019-04-25T12:11:24.609Z,30.10
2019-04-25T12:13:54.217Z,30.40
2019-04-25T12:16:24.656Z,29.80
2019-04-25T12:18:55.346Z,30.30
2019-04-25T12:21:23.951Z,30.10
2019-04-25T12:23:52.607Z,30.30
2019-04-25T12:26:22.076Z,29.80
2019-04-25T12:28:51.389Z,29.90
2019-04-25T12:31:19.989Z,30.10
2019-04-25T12:33:49.056Z,30.40
2019-04-25T12:36:18.695Z,30.90
2019-04-25T12:38:47.118Z,30.00
2019-04-25T12:41:15.566Z,29.20
2019-04-25T12:43:48.388Z,28.30
2019-04-25T12:46:17.701Z,28.30
2019-04-25T12:48:47.617Z,28.80
2019-04-25T12:51:16.252Z,29.00
2019-04-25T12:53:44.750Z,28.10
2019-04-25T12:56:13.261Z,28.20
2019-04-25T12:58:43.357Z,28.20
2019-04-25T13:01:12.361Z,27.60
2019-04-25T13:03:40.773Z,27.00
2019-04-25T13:06:09.248Z,26.20
2019-04-25T13:08:37.736Z,26.80
2019-04-25T13:11:08.562Z,26.50
2019-04-25T13:13:36.325Z,26.30
2019-04-25T13:16:06.260Z,25.50
2019-04-25T13:18:34.823Z,25.70
2019-04-25T13:21:03.611Z,25.40
2019-04-25T13:23:32.151Z,26.00
2019-04-25T13:26:01.580Z,25.50
2019-04-25T13:28:31.836Z,25.30
2019-04-25T13:31:14.864Z,24.80
2019-04-25T13:34:01.728Z,25.20
2019-04-25T13:36:31.245Z,25.10
2019-04-25T13:38:59.670Z,24.60
2019-04-25T13:41:28.385Z,26.00
2019-04-25T13:43:57.732Z,25.30
2019-04-25T13:46:27.519Z,25.10
2019-04-25T13:48:56.360Z,24.50
2019-04-25T13:51:25.034Z,25.10
2019-04-25T13:53:54.539Z,24.50
2019-04-25T13:56:25.855Z,24.30
2019-04-25T13:58:54.265Z,25.20
2019-04-25T14:01:24.672Z,24.20
2019-04-25T14:03:54.213Z,25.10
2019-04-25T14:06:22.801Z,24.70
2019-04-25T14:08:51.248Z,25.20
2019-04-25T14:11:20.709Z,25.10
2019-04-25T14:13:49.983Z,24.90
2019-04-25T14:16:38.299Z,24.50
2019-04-25T14:19:14.721Z,25.80
2019-04-25T14:21:43.517Z,24.00
2019-04-25T14:24:20.298Z,23.70
2019-04-25T14:26:42.116Z,25.00
2019-04-25T14:29:10.637Z,25.10
2019-04-25T14:31:45.436Z,24.50
2019-04-25T14:34:13.281Z,24.50
2019-04-25T14:36:41.853Z,25.00
2019-04-25T14:39:11.535Z,24.80
2019-04-25T14:41:40.036Z,23.60
2019-04-25T14:44:08.468Z,24.00
2019-04-25T14:46:37.900Z,23.60
2019-04-25T14:49:06.500Z,24.00
2019-04-25T14:51:34.996Z,24.20
2019-04-25T14:54:05.074Z,23.70
2019-04-25T14:56:35.133Z,23.20
2019-04-25T14:59:05.307Z,23.90
2019-04-25T15:01:44.583Z,23.90
2019-04-25T15:04:05.585Z,23.80
2019-04-25T15:06:34.017Z,24.40
2019-04-25T15:09:02.459Z,24.10
2019-04-25T15:11:31.494Z,23.00
2019-04-25T15:14:02.187Z,23.10
2019-04-25T15:16:31.175Z,24.00
2019-04-25T15:19:02.673Z,24.10
2019-04-25T15:21:31.885Z,24.80
2019-04-25T15:24:00.641Z,25.50
2019-04-25T15:26:29.185Z,24.90
2019-04-25T15:28:57.644Z,25.00
2019-04-25T15:31:27.102Z,26.10
2019-04-25T15:33:55.840Z,26.30
2019-04-25T15:36:25.901Z,26.00
2019-04-25T15:39:12.405Z,26.20
2019-04-25T15:41:44.977Z,25.80
2019-04-25T15:44:30.915Z,25.90
2019-04-25T15:47:01.213Z,25.80
2019-04-25T15:49:29.635Z,26.60
2019-04-25T15:51:58.065Z,27.20
2019-04-25T15:54:26.715Z,28.50
2019-04-25T15:56:56.083Z,38.40
2019-04-25T15:59:24.523Z,42.40
2019-04-25T16:01:52.953Z,44.80
2019-04-25T16:04:21.376Z,46.70
2019-04-25T16:06:49.805Z,48.80
2019-04-25T16:09:18.288Z,50.40
2019-04-25T16:11:46.736Z,52.00
2019-04-25T16:14:15.189Z,52.80
2019-04-25T16:16:43.646Z,53.50
2019-04-25T16:19:12.064Z,54.20
2019-04-25T16:21:42.142Z,54.70
2019-04-25T16:24:10.906Z,55.30
2019-04-25T16:26:39.335Z,55.70
2019-04-25T16:29:07.836Z,55.60
2019-04-25T16:31:36.747Z,55.60
2019-04-25T16:34:05.268Z,55.10
2019-04-25T16:36:33.710Z,54.70
2019-04-25T16:39:03.927Z,54.60
2019-04-25T16:41:33.572Z,54.50
2019-04-25T16:44:03.937Z,54.50
2019-04-25T16:46:34.121Z,55.00
2019-04-25T16:49:02.677Z,55.50
2019-04-25T16:51:31.274Z,55.60
2019-04-25T16:53:59.694Z,55.80
2019-04-25T16:56:28.276Z,56.50
2019-04-25T16:58:57.788Z,55.70
2019-04-25T17:01:26.342Z,56.20
2019-04-25T17:03:54.842Z,55.40
2019-04-25T17:06:23.308Z,55.60
2019-04-25T17:08:51.790Z,56.00
2019-04-25T17:11:20.703Z,55.90
2019-04-25T17:13:50.864Z,54.50
2019-04-25T17:16:37.209Z,54.10
2019-04-25T17:19:10.441Z,53.50
2019-04-25T17:21:39.254Z,52.90
2019-04-25T17:24:07.790Z,52.90
2019-04-25T17:26:36.827Z,52.90
2019-04-25T17:29:07.119Z,53.00
2019-04-25T17:31:43.564Z,52.00
2019-04-25T17:34:19.793Z,52.00
2019-04-25T17:37:05.192Z,52.80
2019-04-25T17:39:40.902Z,53.30
2019-04-25T17:42:09.567Z,53.40
2019-04-25T17:44:38.376Z,54.00
2019-04-25T17:47:07.096Z,54.60
2019-04-25T17:49:36.691Z,55.00
2019-04-25T17:52:05.485Z,55.40
2019-04-25T17:54:34.228Z,55.80
2019-04-25T17:57:02.801Z,56.70
2019-04-25T17:59:31.290Z,57.50
2019-04-25T18:02:00.778Z,57.80
2019-04-25T18:04:29.298Z,58.60
2019-04-25T18:06:57.748Z,59.00
2019-04-25T18:09:26.313Z,59.70
2019-04-25T18:11:54.892Z,60.80
2019-04-25T18:14:23.404Z,61.50
2019-04-25T18:16:52.037Z,62.30
2019-04-25T18:19:28.021Z,62.60
2019-04-25T18:21:58.084Z,63.70
2019-04-25T18:24:45.421Z,62.90
2019-04-25T18:27:15.622Z,63.50
2019-04-25T18:29:44.218Z,63.50
2019-04-25T18:32:12.638Z,62.50
2019-04-25T18:34:57.583Z,63.30
2019-04-25T18:37:27.685Z,64.30
2019-04-25T18:40:06.801Z,64.70
2019-04-25T18:42:39.949Z,65.00
2019-04-25T18:45:10.387Z,65.40
2019-04-25T18:47:38.898Z,66.30
2019-04-25T18:50:09.116Z,66.70
2019-04-25T18:52:42.954Z,67.00
2019-04-25T18:55:28.540Z,66.90
2019-04-25T18:58:07.321Z,66.90
2019-04-25T19:00:46.148Z,66.90
2019-04-25T19:03:33.090Z,67.20
2019-04-25T19:06:05.882Z,67.80
2019-04-25T19:08:34.295Z,68.00
2019-04-25T19:11:03.257Z,68.00
2019-04-25T19:13:31.940Z,67.90
2019-04-25T19:16:00.459Z,68.20
2019-04-25T19:18:28.907Z,68.50
2019-04-25T19:20:57.532Z,69.20
2019-04-25T19:23:25.977Z,68.60
2019-04-25T19:25:54.438Z,68.30
2019-04-25T19:28:22.870Z,67.70
2019-04-25T19:30:51.696Z,68.80
2019-04-25T19:33:21.762Z,68.20
2019-04-25T19:35:50.220Z,68.70
2019-04-25T19:38:18.661Z,68.40
2019-04-25T19:40:48.753Z,68.60
2019-04-25T19:43:54.901Z,68.70
2019-04-25T19:46:25.019Z,68.90
2019-04-25T19:48:53.495Z,69.10
2019-04-25T19:51:21.969Z,69.60
2019-04-25T19:53:51.274Z,69.70
2019-04-25T19:56:19.817Z,69.30
2019-04-25T19:58:48.657Z,69.60
2019-04-25T20:01:17.263Z,70.30
2019-04-25T20:03:58.018Z,70.60
2019-04-25T20:06:30.830Z,70.80
2019-04-25T20:09:00.908Z,70.70
2019-04-25T20:11:44.334Z,70.70
2019-04-25T20:14:13.680Z,70.30
2019-04-25T20:16:44.865Z,70.50
2019-04-25T20:19:13.941Z,71.10
2019-04-25T20:21:44.393Z,71.50
2019-04-25T20:24:12.764Z,71.80
2019-04-25T20:26:41.185Z,72.40
2019-04-25T20:29:09.636Z,72.60
2019-04-25T20:31:38.067Z,73.00
2019-04-25T20:34:06.515Z,72.90
2019-04-25T20:36:35.081Z,73.30
2019-04-25T20:39:05.012Z,73.30
2019-04-25T20:41:33.420Z,73.20
2019-04-25T20:44:01.977Z,73.50
2019-04-25T20:46:30.574Z,73.60
2019-04-25T20:48:59.075Z,74.10
2019-04-25T20:51:27.487Z,74.10
2019-04-25T20:53:57.034Z,74.70
2019-04-25T20:56:25.533Z,74.60
2019-04-25T20:58:53.976Z,75.00
2019-04-25T21:01:22.400Z,75.10
2019-04-25T21:03:51.990Z,75.50
2019-04-25T21:06:24.882Z,75.20
2019-04-25T21:08:53.435Z,75.80
2019-04-25T21:11:21.997Z,76.30
2019-04-25T21:13:52.949Z,76.40
2019-04-25T21:16:39.203Z,75.80
2019-04-25T21:19:12.268Z,75.20
2019-04-25T21:21:40.936Z,75.00
2019-04-25T21:24:09.476Z,75.20
2019-04-25T21:26:37.922Z,75.50
2019-04-25T21:29:06.493Z,75.50
2019-04-25T21:31:35.065Z,75.60
2019-04-25T21:34:03.486Z,75.30
2019-04-25T21:36:32.263Z,75.40
2019-04-25T21:39:00.699Z,75.30
2019-04-25T21:41:49.423Z,75.70
2019-04-25T21:44:18.184Z,75.90
2019-04-25T21:46:46.639Z,76.80
2019-04-25T21:49:15.336Z,77.70
2019-04-25T21:51:43.874Z,77.90
2019-04-25T21:54:12.283Z,78.10
2019-04-25T21:56:41.100Z,78.10
2019-04-25T21:59:09.908Z,78.40
2019-04-25T22:01:40.056Z,78.70
2019-04-25T22:04:08.669Z,78.40
2019-04-25T22:06:37.627Z,78.30
2019-04-25T22:09:14.115Z,78.30
2019-04-25T22:11:42.942Z,79.20
2019-04-25T22:14:12.452Z,80.10
2019-04-25T22:16:41.306Z,81.00
2019-04-25T22:19:11.448Z,82.50
2019-04-25T22:21:40.177Z,82.40
2019-04-25T22:24:12.854Z,83.50
2019-04-25T22:26:38.832Z,84.60
2019-04-25T22:29:07.776Z,85.30
2019-04-25T22:31:38.019Z,85.70
2019-04-25T22:34:08.271Z,86.20
2019-04-25T22:36:37.121Z,86.50
2019-04-25T22:39:11.130Z,86.90
2019-04-25T22:41:42.437Z,87.00
2019-04-25T22:44:15.269Z,87.10
2019-04-25T22:46:43.303Z,87.40
2019-04-25T22:49:12.428Z,88.10
2019-04-25T22:51:40.920Z,87.80
2019-04-25T22:54:09.734Z,88.80
2019-04-25T22:56:38.216Z,88.60
2019-04-25T22:59:07.024Z,89.00
2019-04-25T23:01:39.788Z,89.60
2019-04-25T23:04:09.864Z,90.20
2019-04-25T23:06:38.556Z,90.70
2019-04-25T23:09:08.169Z,91.00
2019-04-25T23:11:36.749Z,91.10
2019-04-25T23:14:05.457Z,91.20
2019-04-25T23:16:35.359Z,91.40
2019-04-25T23:19:04.345Z,91.60
2019-04-25T23:21:33.878Z,91.90
2019-04-25T23:24:03.444Z,92.00
2019-04-25T23:26:34.081Z,91.60
2019-04-25T23:29:04.804Z,91.10
2019-04-25T23:31:34.901Z,91.10
2019-04-25T23:34:04.510Z,91.40
2019-04-25T23:36:34.081Z,91.80
2019-04-25T23:39:02.533Z,92.50
2019-04-25T23:41:31.306Z,92.10
2019-04-25T23:43:59.732Z,91.60
2019-04-25T23:46:28.461Z,91.30
2019-04-25T23:48:56.858Z,91.10
2019-04-25T23:51:25.253Z,90.70
2019-04-25T23:53:54.054Z,90.70
2019-04-25T23:56:22.440Z,91.00
2019-04-25T23:58:51.237Z,91.30
